createdAt,value
2023-02-13T04:02:10.569Z,32.83
2023-02-13T04:04:50.284Z,31.27
2023-02-13T04:07:32.202Z,36.13
2023-02-13T04:10:10.962Z,26.37
2023-02-13T04:12:56.970Z,26.77
2023-02-13T04:15:33.297Z,30.50
2023-02-13T04:18:22.504Z,26.80
2023-02-13T04:20:49.869Z,36.97
2023-02-13T04:23:17.201Z,27.50
2023-02-13T04:25:48.757Z,25.97
2023-02-13T04:28:16.188Z,24.87
2023-02-13T04:30:43.540Z,28.20
2023-02-13T04:33:10.760Z,44.23
2023-02-13T04:35:38.190Z,25.70
2023-02-13T04:38:05.516Z,33.27
2023-02-13T04:40:33.037Z,33.00
2023-02-13T04:43:00.338Z,27.57
2023-02-13T04:45:27.647Z,21.77
2023-02-13T04:47:57.042Z,17.97
2023-02-13T04:50:25.029Z,26.00
2023-02-13T04:52:57.193Z,34.73
2023-02-13T04:55:26.413Z,26.00
2023-02-13T04:57:54.975Z,23.50
2023-02-13T05:00:24.260Z,21.90
2023-02-13T05:02:51.711Z,21.50
2023-02-13T05:05:20.038Z,22.67
2023-02-13T05:07:47.261Z,24.53
2023-02-13T05:10:14.447Z,27.80
2023-02-13T05:12:41.616Z,19.40
2023-02-13T05:15:09.318Z,20.53
2023-02-13T05:17:36.517Z,19.60
2023-02-13T05:20:03.824Z,24.00
2023-02-13T05:22:49.728Z,17.73
2023-02-13T05:25:17.092Z,17.73
2023-02-13T05:27:44.279Z,21.60
2023-02-13T05:30:12.340Z,20.67
2023-02-13T05:32:39.611Z,21.63
2023-02-13T05:35:07.145Z,17.07
2023-02-13T05:37:34.396Z,15.73
2023-02-13T05:40:01.542Z,17.53
2023-02-13T05:42:28.759Z,16.90
2023-02-13T05:44:55.878Z,17.50
2023-02-13T05:47:23.074Z,15.37
2023-02-13T05:49:50.254Z,15.83
2023-02-13T05:52:17.405Z,15.63
2023-02-13T05:54:44.857Z,17.77
2023-02-13T05:57:12.027Z,18.90
2023-02-13T05:59:39.230Z,18.03
2023-02-13T06:02:06.423Z,16.33
2023-02-13T06:04:33.537Z,17.40
2023-02-13T06:07:00.821Z,16.87
2023-02-13T06:09:27.984Z,27.40
2023-02-13T06:11:55.253Z,15.53
2023-02-13T06:14:22.401Z,15.07
2023-02-13T06:16:49.626Z,15.67
2023-02-13T06:19:16.766Z,17.90
2023-02-13T06:21:43.918Z,17.30
2023-02-13T06:24:11.077Z,14.93
2023-02-13T06:26:38.362Z,17.10
2023-02-13T06:29:06.771Z,17.43
2023-02-13T06:31:34.088Z,16.43
2023-02-13T06:34:01.409Z,24.03
2023-02-13T06:36:28.624Z,14.47
2023-02-13T06:38:55.857Z,16.87
2023-02-13T06:41:23.020Z,19.17
2023-02-13T06:43:50.533Z,17.37
2023-02-13T06:46:17.725Z,26.40
2023-02-13T06:48:44.922Z,55.13
2023-02-13T06:51:12.061Z,71.40
2023-02-13T06:53:39.685Z,16.03
2023-02-13T06:56:07.098Z,19.03
2023-02-13T06:58:34.556Z,52.97
2023-02-13T07:01:01.828Z,17.17
2023-02-13T07:03:29.048Z,18.63
2023-02-13T07:05:56.634Z,42.23
2023-02-13T07:08:23.968Z,57.87
2023-02-13T07:10:51.174Z,41.50
2023-02-13T07:13:18.325Z,18.40
2023-02-13T07:15:45.525Z,20.17
2023-02-13T07:18:12.745Z,18.53
2023-02-13T07:20:40.096Z,29.30
2023-02-13T07:23:07.848Z,26.30
2023-02-13T07:25:35.215Z,17.00
2023-02-13T07:28:06.454Z,18.73
2023-02-13T07:30:34.710Z,23.57
2023-02-13T07:33:05.462Z,22.57
2023-02-13T07:35:33.162Z,39.07
2023-02-13T07:38:00.785Z,37.53
2023-02-13T07:40:28.377Z,58.57
2023-02-13T07:42:56.227Z,36.23
2023-02-13T07:45:23.409Z,30.07
2023-02-13T07:47:50.612Z,20.77
2023-02-13T07:50:17.968Z,39.90
2023-02-13T07:52:45.127Z,38.60
2023-02-13T07:55:12.286Z,36.47
2023-02-13T07:57:39.502Z,55.57
2023-02-13T08:00:07.322Z,16.20
2023-02-13T08:02:34.593Z,18.93
2023-02-13T08:05:01.712Z,33.53
2023-02-13T08:07:28.919Z,25.97
2023-02-13T08:10:34.514Z,33.57
2023-02-13T08:13:01.797Z,32.63
2023-02-13T08:15:29.167Z,28.43
2023-02-13T08:17:56.537Z,50.40
2023-02-13T08:20:26.591Z,25.03
2023-02-13T08:22:53.811Z,21.77
2023-02-13T08:25:21.111Z,28.17
2023-02-13T08:27:48.281Z,26.80
2023-02-13T08:30:15.677Z,23.50
2023-02-13T08:32:53.928Z,25.03
2023-02-13T08:35:22.894Z,26.17
2023-02-13T08:37:50.147Z,25.67
2023-02-13T08:40:17.490Z,22.60
2023-02-13T08:42:44.812Z,22.07
2023-02-13T08:45:12.019Z,19.57
2023-02-13T08:47:39.984Z,25.10
2023-02-13T08:50:07.853Z,16.83
2023-02-13T08:52:35.570Z,19.70
2023-02-13T08:55:03.534Z,20.97
2023-02-13T08:57:31.421Z,28.20
2023-02-13T08:59:58.782Z,24.47
2023-02-13T09:02:26.117Z,20.83
2023-02-13T09:04:53.586Z,25.30
2023-02-13T09:07:21.000Z,26.03
2023-02-13T09:09:48.201Z,22.73
2023-02-13T09:12:15.632Z,23.70
2023-02-13T09:14:42.798Z,21.60
2023-02-13T09:17:10.016Z,19.93
2023-02-13T09:19:37.170Z,24.20
2023-02-13T09:22:04.384Z,22.43
2023-02-13T09:24:31.699Z,21.20
2023-02-13T09:26:58.893Z,20.43
2023-02-13T09:29:30.284Z,21.07
2023-02-13T09:31:57.716Z,20.73
2023-02-13T09:34:25.048Z,19.23
2023-02-13T09:36:55.256Z,24.23
2023-02-13T09:39:22.466Z,21.20
2023-02-13T09:41:53.292Z,23.87
2023-02-13T09:44:34.362Z,26.40
2023-02-13T09:47:28.908Z,25.53
2023-02-13T09:50:19.122Z,21.67
2023-02-13T09:52:47.799Z,21.07
2023-02-13T09:55:52.897Z,19.90
2023-02-13T09:58:46.468Z,23.50
2023-02-13T10:01:33.997Z,23.67
2023-02-13T10:04:10.224Z,16.97
2023-02-13T10:06:50.070Z,20.53
2023-02-13T10:09:33.309Z,20.63
2023-02-13T10:12:15.349Z,19.37
2023-02-13T10:14:52.292Z,20.80
2023-02-13T10:17:34.033Z,17.70
2023-02-13T10:20:24.071Z,18.00
2023-02-13T10:23:13.916Z,17.93
2023-02-13T10:25:58.949Z,17.90
2023-02-13T10:28:35.417Z,18.83
2023-02-13T10:31:13.852Z,18.37
2023-02-13T10:33:43.821Z,16.03
2023-02-13T10:36:11.081Z,15.23
2023-02-13T10:38:56.776Z,14.50
2023-02-13T10:41:53.666Z,14.93
2023-02-13T10:44:39.415Z,13.97
2023-02-13T10:47:25.131Z,13.83
2023-02-13T10:49:58.670Z,12.70
2023-02-13T10:52:49.614Z,12.87
2023-02-13T10:55:40.280Z,12.07
2023-02-13T10:58:19.406Z,12.77
2023-02-13T11:01:14.556Z,11.90
2023-02-13T11:03:41.885Z,12.10
2023-02-13T11:06:14.629Z,10.97
2023-02-13T11:08:47.499Z,11.93
2023-02-13T11:11:35.191Z,11.30
2023-02-13T11:14:09.832Z,11.37
2023-02-13T11:16:53.761Z,11.37
2023-02-13T11:19:34.540Z,12.20
2023-02-13T11:22:05.972Z,12.07
2023-02-13T11:24:33.799Z,12.57
2023-02-13T11:27:09.142Z,10.53
2023-02-13T11:29:50.482Z,11.10
2023-02-13T11:32:19.694Z,10.87
2023-02-13T11:34:50.489Z,10.10
2023-02-13T11:37:20.749Z,10.53
2023-02-13T11:39:51.393Z,9.90
2023-02-13T11:42:34.628Z,11.07
2023-02-13T11:45:04.252Z,10.17
2023-02-13T11:47:43.167Z,9.93
2023-02-13T11:50:30.137Z,9.60
2023-02-13T11:53:03.077Z,9.70
2023-02-13T11:55:38.110Z,9.03
2023-02-13T11:58:25.104Z,8.33
2023-02-13T12:01:20.042Z,8.80
2023-02-13T12:04:16.184Z,9.13
2023-02-13T12:07:03.027Z,9.30
2023-02-13T12:09:31.360Z,8.97
2023-02-13T12:12:02.614Z,9.37
2023-02-13T12:14:36.977Z,7.33
2023-02-13T12:17:19.175Z,7.67
2023-02-13T12:19:56.984Z,5.87
2023-02-13T12:22:47.627Z,6.87
2023-02-13T12:25:27.076Z,6.50
2023-02-13T12:28:17.976Z,6.97
2023-02-13T12:31:05.704Z,7.87
2023-02-13T12:33:47.993Z,8.67
2023-02-13T12:36:24.930Z,8.10
2023-02-13T12:39:28.738Z,10.83
2023-02-13T12:42:20.832Z,8.95
2023-02-13T12:45:11.239Z,8.77
2023-02-13T12:48:04.314Z,9.27
2023-02-13T12:50:51.660Z,9.60
2023-02-13T12:53:53.762Z,10.00
2023-02-13T12:56:23.939Z,8.60
2023-02-13T12:58:51.056Z,12.50
2023-02-13T13:01:31.087Z,18.55
2023-02-13T13:03:58.297Z,20.03
2023-02-13T13:06:56.977Z,19.00
2023-02-13T13:09:41.519Z,15.17
2023-02-13T13:12:28.098Z,19.30
2023-02-13T13:15:22.046Z,24.50
2023-02-13T13:18:07.616Z,18.02
2023-02-13T13:21:02.016Z,18.25
2023-02-13T13:24:01.183Z,14.87
2023-02-13T13:26:37.031Z,16.55
2023-02-13T13:29:11.122Z,15.27
2023-02-13T13:31:39.016Z,16.85
2023-02-13T13:34:13.588Z,17.03
2023-02-13T13:37:20.968Z,14.93
2023-02-13T13:39:48.055Z,16.63
2023-02-13T13:42:41.548Z,15.35
2023-02-13T13:45:11.756Z,16.17
2023-02-13T13:47:50.818Z,16.83
2023-02-13T13:50:27.474Z,16.40
2023-02-13T13:53:11.223Z,16.33
2023-02-13T13:55:50.034Z,19.63
2023-02-13T13:58:43.962Z,15.77
2023-02-13T14:01:23.074Z,15.68
2023-02-13T14:03:51.745Z,16.45
2023-02-13T14:06:24.521Z,15.90
2023-02-13T14:08:58.283Z,15.65
2023-02-13T14:11:46.522Z,14.87
2023-02-13T14:14:29.288Z,15.53
2023-02-13T14:16:58.388Z,15.10
2023-02-13T14:19:40.408Z,16.57
2023-02-13T14:22:19.725Z,16.92
2023-02-13T14:25:02.483Z,15.88
2023-02-13T14:27:39.335Z,15.65
2023-02-13T14:30:28.455Z,18.02
2023-02-13T14:32:56.037Z,17.17
2023-02-13T14:35:35.618Z,21.77
2023-02-13T14:38:17.933Z,22.30
2023-02-13T14:40:49.464Z,22.60
2023-02-13T14:43:29.002Z,18.33
2023-02-13T14:45:57.855Z,18.80
2023-02-13T14:48:56.813Z,20.40
2023-02-13T14:51:35.902Z,18.23
2023-02-13T14:54:08.370Z,19.63
2023-02-13T14:56:38.850Z,21.30
2023-02-13T14:59:15.470Z,19.13
2023-02-13T15:01:53.693Z,21.23
2023-02-13T15:04:37.669Z,21.90
2023-02-13T15:07:06.912Z,19.87
2023-02-13T15:09:40.646Z,21.90
2023-02-13T15:12:34.212Z,21.73
2023-02-13T15:15:02.842Z,22.17
2023-02-13T15:17:38.168Z,23.40
2023-02-13T15:20:21.814Z,23.17
2023-02-13T15:22:49.077Z,23.97
2023-02-13T15:25:32.818Z,25.73
2023-02-13T15:28:02.262Z,23.30
2023-02-13T15:30:38.851Z,24.90
2023-02-13T15:33:19.411Z,24.03
2023-02-13T15:35:46.754Z,24.07
2023-02-13T15:38:24.362Z,31.70
2023-02-13T15:40:53.800Z,24.60
2023-02-13T15:43:48.549Z,25.50
2023-02-13T15:46:21.734Z,27.47
2023-02-13T15:48:49.314Z,24.83
2023-02-13T15:51:30.018Z,26.13
2023-02-13T15:54:06.320Z,25.53
2023-02-13T15:56:35.346Z,25.90
2023-02-13T15:59:03.912Z,24.57
2023-02-13T16:01:31.933Z,26.23
2023-02-13T16:04:12.340Z,23.87
2023-02-13T16:06:43.000Z,30.13
2023-02-13T16:09:25.260Z,25.13
2023-02-13T16:12:00.113Z,28.57
2023-02-13T16:14:29.154Z,27.53
2023-02-13T16:17:16.129Z,25.70
2023-02-13T16:19:52.643Z,25.87
2023-02-13T16:22:42.861Z,28.80
2023-02-13T16:25:13.060Z,26.67
2023-02-13T16:27:47.715Z,25.93
2023-02-13T16:30:27.211Z,28.87
2023-02-13T16:33:16.065Z,29.20
2023-02-13T16:36:12.657Z,27.60
2023-02-13T16:38:43.805Z,29.00
2023-02-13T16:41:20.032Z,28.90
2023-02-13T16:43:54.214Z,29.00
2023-02-13T16:46:27.346Z,28.73
2023-02-13T16:48:57.509Z,31.03
2023-02-13T16:51:29.589Z,29.17
2023-02-13T16:54:06.434Z,29.47
2023-02-13T16:56:50.267Z,30.10
2023-02-13T16:59:17.390Z,31.17
2023-02-13T17:01:44.579Z,33.13
2023-02-13T17:04:23.683Z,27.83
2023-02-13T17:06:57.007Z,33.40
2023-02-13T17:09:24.417Z,28.63
2023-02-13T17:11:52.769Z,31.50
2023-02-13T17:14:20.440Z,34.27
2023-02-13T17:16:48.744Z,30.27
2023-02-13T17:19:15.962Z,31.03
2023-02-13T17:21:43.363Z,30.67
2023-02-13T17:24:17.448Z,31.90
2023-02-13T17:26:44.666Z,32.97
2023-02-13T17:29:11.887Z,30.53
2023-02-13T17:31:39.302Z,31.90
2023-02-13T17:34:06.593Z,31.73
2023-02-13T17:36:33.762Z,30.77
2023-02-13T17:39:00.913Z,32.53
2023-02-13T17:41:28.071Z,31.90
2023-02-13T17:43:55.255Z,30.70
2023-02-13T17:46:22.524Z,31.43
2023-02-13T17:48:49.793Z,30.47
2023-02-13T17:51:16.987Z,31.63
2023-02-13T17:53:44.295Z,31.73
2023-02-13T17:56:11.472Z,33.90
2023-02-13T17:58:38.624Z,37.17
2023-02-13T18:01:05.797Z,37.13
2023-02-13T18:03:33.024Z,39.37
2023-02-13T18:06:00.227Z,38.87
2023-02-13T18:08:27.431Z,35.73
2023-02-13T18:10:54.634Z,33.87
2023-02-13T18:13:21.909Z,37.57
2023-02-13T18:15:49.210Z,33.17
2023-02-13T18:18:17.612Z,37.10
2023-02-13T18:20:45.088Z,32.80
2023-02-13T18:23:13.941Z,34.90
2023-02-13T18:25:41.148Z,36.90
2023-02-13T18:28:08.307Z,34.20
2023-02-13T18:30:35.500Z,35.47
2023-02-13T18:33:04.979Z,36.67
2023-02-13T18:35:33.372Z,87.67
2023-02-13T18:38:00.623Z,41.83
2023-02-13T18:40:27.863Z,40.10
2023-02-13T18:42:55.228Z,34.47
2023-02-13T18:45:22.447Z,36.07
2023-02-13T18:47:49.696Z,37.43
2023-02-13T18:50:17.053Z,36.43
2023-02-13T18:52:44.271Z,33.17
2023-02-13T18:55:11.434Z,30.87
2023-02-13T18:57:43.265Z,31.33
2023-02-13T19:00:11.249Z,35.93
2023-02-13T19:02:38.509Z,45.40
2023-02-13T19:05:06.392Z,44.37
2023-02-13T19:07:33.633Z,39.63
2023-02-13T19:10:00.880Z,39.73
2023-02-13T19:12:28.164Z,35.90
2023-02-13T19:14:55.405Z,81.17
2023-02-13T19:17:22.574Z,60.23
2023-02-13T19:19:50.406Z,74.67
2023-02-13T19:22:17.946Z,37.57
2023-02-13T19:24:45.123Z,42.73
2023-02-13T19:27:12.305Z,40.67
2023-02-13T19:29:39.495Z,58.20
2023-02-13T19:32:06.669Z,58.43
2023-02-13T19:34:33.889Z,75.90
2023-02-13T19:37:01.035Z,47.70
2023-02-13T19:39:28.195Z,29.50
2023-02-13T19:41:55.329Z,45.43
2023-02-13T19:44:22.629Z,60.17
2023-02-13T19:46:49.809Z,65.97
2023-02-13T19:49:17.888Z,73.97
2023-02-13T19:51:46.630Z,31.30
2023-02-13T19:54:14.618Z,51.47
2023-02-13T19:56:41.929Z,33.40
2023-02-13T19:59:13.275Z,35.07
2023-02-13T20:01:42.731Z,48.17
2023-02-13T20:04:11.464Z,51.80
2023-02-13T20:06:39.484Z,62.30
2023-02-13T20:09:09.783Z,49.17
2023-02-13T20:11:37.906Z,69.37
2023-02-13T20:14:05.402Z,73.50
2023-02-13T20:16:35.479Z,140.73
2023-02-13T20:19:06.954Z,101.50
2023-02-13T20:21:35.337Z,53.70
2023-02-13T20:24:03.250Z,52.33
2023-02-13T20:26:30.866Z,76.80
2023-02-13T20:29:01.065Z,57.63
2023-02-13T20:31:29.855Z,124.07
2023-02-13T20:33:58.541Z,96.43
2023-02-13T20:36:28.876Z,72.80
2023-02-13T20:38:59.485Z,63.83
2023-02-13T20:41:29.130Z,55.83
2023-02-13T20:44:02.439Z,42.10
2023-02-13T20:46:35.044Z,58.17
2023-02-13T20:49:02.335Z,58.77
2023-02-13T20:51:29.683Z,33.50
2023-02-13T20:53:57.187Z,66.73
2023-02-13T20:56:26.352Z,34.23
2023-02-13T20:58:56.262Z,51.17
2023-02-13T21:01:29.567Z,42.53
2023-02-13T21:03:57.607Z,46.30
2023-02-13T21:06:26.723Z,51.93
2023-02-13T21:08:54.479Z,39.87
2023-02-13T21:11:22.342Z,40.37
2023-02-13T21:13:49.986Z,39.27
2023-02-13T21:16:37.558Z,45.27
2023-02-13T21:19:07.759Z,41.87
2023-02-13T21:21:37.143Z,62.77
2023-02-13T21:24:08.364Z,47.03
2023-02-13T21:26:36.327Z,38.23
2023-02-13T21:29:04.708Z,36.20
2023-02-13T21:31:34.969Z,45.83
2023-02-13T21:34:07.691Z,37.10
2023-02-13T21:36:36.647Z,32.20
2023-02-13T21:39:04.775Z,33.00
2023-02-13T21:41:31.911Z,34.50
2023-02-13T21:43:59.043Z,37.07
2023-02-13T21:46:28.970Z,44.43
2023-02-13T21:48:58.588Z,49.67
2023-02-13T21:51:28.783Z,51.53
2023-02-13T21:53:56.714Z,47.53
2023-02-13T21:56:26.955Z,32.67
2023-02-13T21:58:54.564Z,30.47
